sensor_id;sensor_type;location;lat;lon;timestamp;P1;durP1;ratioP1;P2;durP2;ratioP2
11957;SDS011;6039;52.576;13.348;2024-02-26T00:01:40;25.90;;;15.00;;
11957;SDS011;6039;52.576;13.348;2024-02-26T00:06:44;23.60;;;14.43;;
11957;SDS011;6039;52.576;13.348;2024-02-26T00:11:50;26.80;;;14.47;;
11957;SDS011;6039;52.576;13.348;2024-02-26T00:16:58;20.17;;;12.87;;
11957;SDS011;6039;52.576;13.348;2024-02-26T00:22:02;21.83;;;13.53;;
11957;SDS011;6039;52.576;13.348;2024-02-26T00:27:06;24.30;;;13.00;;
11957;SDS011;6039;52.576;13.348;2024-02-26T00:32:14;20.97;;;12.93;;
11957;SDS011;6039;52.576;13.348;2024-02-26T00:37:18;20.40;;;10.87;;
11957;SDS011;6039;52.576;13.348;2024-02-26T00:42:22;17.63;;;11.03;;
11957;SDS011;6039;52.576;13.348;2024-02-26T00:47:29;17.67;;;10.67;;
11957;SDS011;6039;52.576;13.348;2024-02-26T00:52:32;19.87;;;11.07;;
11957;SDS011;6039;52.576;13.348;2024-02-26T00:57:36;18.53;;;11.07;;
11957;SDS011;6039;52.576;13.348;2024-02-26T01:02:43;18.10;;;10.13;;
11957;SDS011;6039;52.576;13.348;2024-02-26T01:07:48;16.40;;;10.17;;
11957;SDS011;6039;52.576;13.348;2024-02-26T01:12:52;16.53;;;10.63;;
11957;SDS011;6039;52.576;13.348;2024-02-26T01:17:58;16.10;;;10.30;;
11957;SDS011;6039;52.576;13.348;2024-02-26T01:23:02;14.00;;;9.90;;
11957;SDS011;6039;52.576;13.348;2024-02-26T01:28:06;13.93;;;9.17;;
11957;SDS011;6039;52.576;13.348;2024-02-26T01:33:13;15.97;;;9.63;;
11957;SDS011;6039;52.576;13.348;2024-02-26T01:38:17;14.57;;;9.10;;
11957;SDS011;6039;52.576;13.348;2024-02-26T01:43:21;14.07;;;8.90;;
11957;SDS011;6039;52.576;13.348;2024-02-26T01:48:27;16.97;;;9.47;;
11957;SDS011;6039;52.576;13.348;2024-02-26T01:53:31;14.73;;;8.73;;
11957;SDS011;6039;52.576;13.348;2024-02-26T01:58:35;12.93;;;7.97;;
11957;SDS011;6039;52.576;13.348;2024-02-26T02:03:42;13.63;;;8.03;;
11957;SDS011;6039;52.576;13.348;2024-02-26T02:08:47;16.27;;;8.83;;
11957;SDS011;6039;52.576;13.348;2024-02-26T02:13:51;12.07;;;7.77;;
11957;SDS011;6039;52.576;13.348;2024-02-26T02:18:58;9.67;;;6.93;;
11957;SDS011;6039;52.576;13.348;2024-02-26T02:24:04;13.10;;;7.13;;
11957;SDS011;6039;52.576;13.348;2024-02-26T02:29:09;11.53;;;6.93;;
11957;SDS011;6039;52.576;13.348;2024-02-26T02:34:12;10.50;;;6.87;;
11957;SDS011;6039;52.576;13.348;2024-02-26T02:39:20;11.37;;;7.03;;
11957;SDS011;6039;52.576;13.348;2024-02-26T02:44:24;11.03;;;6.70;;
11957;SDS011;6039;52.576;13.348;2024-02-26T02:49:28;11.87;;;7.20;;
11957;SDS011;6039;52.576;13.348;2024-02-26T02:54:35;9.07;;;6.50;;
11957;SDS011;6039;52.576;13.348;2024-02-26T02:59:41;9.70;;;6.77;;
11957;SDS011;6039;52.576;13.348;2024-02-26T03:04:45;10.20;;;6.40;;
11957;SDS011;6039;52.576;13.348;2024-02-26T03:09:52;11.17;;;7.10;;
11957;SDS011;6039;52.576;13.348;2024-02-26T03:14:56;10.43;;;6.43;;
11957;SDS011;6039;52.576;13.348;2024-02-26T03:20:02;10.03;;;5.77;;
11957;SDS011;6039;52.576;13.348;2024-02-26T03:25:11;8.10;;;5.70;;
11957;SDS011;6039;52.576;13.348;2024-02-26T03:30:15;9.87;;;5.70;;
11957;SDS011;6039;52.576;13.348;2024-02-26T03:35:20;11.53;;;6.67;;
11957;SDS011;6039;52.576;13.348;2024-02-26T03:40:26;13.00;;;6.70;;
11957;SDS011;6039;52.576;13.348;2024-02-26T03:45:30;11.60;;;6.90;;
11957;SDS011;6039;52.576;13.348;2024-02-26T03:50:34;10.10;;;6.57;;
11957;SDS011;6039;52.576;13.348;2024-02-26T03:55:40;10.77;;;6.37;;
11957;SDS011;6039;52.576;13.348;2024-02-26T04:00:44;8.83;;;5.40;;
11957;SDS011;6039;52.576;13.348;2024-02-26T04:05:49;8.67;;;5.50;;
11957;SDS011;6039;52.576;13.348;2024-02-26T04:10:56;8.37;;;5.20;;
11957;SDS011;6039;52.576;13.348;2024-02-26T04:16:00;11.43;;;6.47;;
11957;SDS011;6039;52.576;13.348;2024-02-26T04:21:04;12.53;;;5.67;;
11957;SDS011;6039;52.576;13.348;2024-02-26T04:26:10;11.57;;;5.60;;
11957;SDS011;6039;52.576;13.348;2024-02-26T04:31:14;14.57;;;5.53;;
11957;SDS011;6039;52.576;13.348;2024-02-26T04:36:18;9.70;;;5.37;;
11957;SDS011;6039;52.576;13.348;2024-02-26T04:41:25;10.20;;;5.43;;
11957;SDS011;6039;52.576;13.348;2024-02-26T04:46:29;8.40;;;5.03;;
11957;SDS011;6039;52.576;13.348;2024-02-26T04:51:33;8.60;;;5.43;;
11957;SDS011;6039;52.576;13.348;2024-02-26T04:56:39;8.53;;;5.50;;
11957;SDS011;6039;52.576;13.348;2024-02-26T05:01:44;9.33;;;6.27;;
11957;SDS011;6039;52.576;13.348;2024-02-26T05:06:48;8.67;;;5.57;;
11957;SDS011;6039;52.576;13.348;2024-02-26T05:11:56;8.77;;;5.80;;
11957;SDS011;6039;52.576;13.348;2024-02-26T05:17:00;9.40;;;6.37;;
11957;SDS011;6039;52.576;13.348;2024-02-26T05:22:04;11.10;;;6.80;;
11957;SDS011;6039;52.576;13.348;2024-02-26T05:27:10;10.67;;;6.50;;
11957;SDS011;6039;52.576;13.348;2024-02-26T05:32:14;13.73;;;6.53;;
11957;SDS011;6039;52.576;13.348;2024-02-26T05:37:18;12.30;;;6.97;;
11957;SDS011;6039;52.576;13.348;2024-02-26T05:42:25;9.23;;;6.20;;
11957;SDS011;6039;52.576;13.348;2024-02-26T05:47:29;9.30;;;6.30;;
11957;SDS011;6039;52.576;13.348;2024-02-26T05:52:33;11.87;;;6.53;;
11957;SDS011;6039;52.576;13.348;2024-02-26T05:57:39;12.00;;;6.77;;
11957;SDS011;6039;52.576;13.348;2024-02-26T06:02:43;10.23;;;6.27;;
11957;SDS011;6039;52.576;13.348;2024-02-26T06:07:47;12.53;;;7.20;;
11957;SDS011;6039;52.576;13.348;2024-02-26T06:12:54;18.23;;;7.80;;
11957;SDS011;6039;52.576;13.348;2024-02-26T06:17:58;13.93;;;7.33;;
11957;SDS011;6039;52.576;13.348;2024-02-26T06:23:02;11.93;;;7.30;;
11957;SDS011;6039;52.576;13.348;2024-02-26T06:28:09;14.40;;;8.03;;
11957;SDS011;6039;52.576;13.348;2024-02-26T06:33:13;14.17;;;8.03;;
11957;SDS011;6039;52.576;13.348;2024-02-26T06:38:17;11.63;;;7.10;;
11957;SDS011;6039;52.576;13.348;2024-02-26T06:43:24;18.20;;;8.97;;
11957;SDS011;6039;52.576;13.348;2024-02-26T06:48:28;15.27;;;8.87;;
11957;SDS011;6039;52.576;13.348;2024-02-26T06:53:32;17.80;;;8.63;;
11957;SDS011;6039;52.576;13.348;2024-02-26T06:58:38;14.77;;;8.63;;
11957;SDS011;6039;52.576;13.348;2024-02-26T07:03:42;14.23;;;7.93;;
11957;SDS011;6039;52.576;13.348;2024-02-26T07:08:46;10.47;;;6.67;;
11957;SDS011;6039;52.576;13.348;2024-02-26T07:13:53;12.80;;;7.83;;
11957;SDS011;6039;52.576;13.348;2024-02-26T07:18:57;13.37;;;7.30;;
11957;SDS011;6039;52.576;13.348;2024-02-26T07:24:01;11.07;;;7.70;;
11957;SDS011;6039;52.576;13.348;2024-02-26T07:29:07;14.70;;;7.50;;
11957;SDS011;6039;52.576;13.348;2024-02-26T07:34:12;15.37;;;7.93;;
11957;SDS011;6039;52.576;13.348;2024-02-26T07:39:16;14.50;;;8.00;;
11957;SDS011;6039;52.576;13.348;2024-02-26T07:44:22;15.07;;;8.50;;
11957;SDS011;6039;52.576;13.348;2024-02-26T07:49:26;11.17;;;7.23;;
11957;SDS011;6039;52.576;13.348;2024-02-26T07:54:30;13.10;;;7.73;;
11957;SDS011;6039;52.576;13.348;2024-02-26T07:59:37;12.97;;;8.63;;
11957;SDS011;6039;52.576;13.348;2024-02-26T08:04:41;17.07;;;8.90;;
11957;SDS011;6039;52.576;13.348;2024-02-26T08:09:45;15.13;;;8.97;;
11957;SDS011;6039;52.576;13.348;2024-02-26T08:14:51;13.23;;;9.40;;
11957;SDS011;6039;52.576;13.348;2024-02-26T08:19:55;13.17;;;8.40;;
11957;SDS011;6039;52.576;13.348;2024-02-26T08:24:59;13.60;;;8.90;;
11957;SDS011;6039;52.576;13.348;2024-02-26T08:30:10;16.03;;;9.93;;
11957;SDS011;6039;52.576;13.348;2024-02-26T08:35:16;16.70;;;9.33;;
11957;SDS011;6039;52.576;13.348;2024-02-26T08:40:21;14.00;;;8.67;;
11957;SDS011;6039;52.576;13.348;2024-02-26T08:45:27;17.90;;;10.07;;
11957;SDS011;6039;52.576;13.348;2024-02-26T08:50:31;15.87;;;9.90;;
11957;SDS011;6039;52.576;13.348;2024-02-26T08:55:35;15.67;;;10.43;;
11957;SDS011;6039;52.576;13.348;2024-02-26T09:00:42;15.97;;;10.07;;
11957;SDS011;6039;52.576;13.348;2024-02-26T09:05:46;16.40;;;10.03;;
11957;SDS011;6039;52.576;13.348;2024-02-26T09:10:50;13.83;;;9.87;;
11957;SDS011;6039;52.576;13.348;2024-02-26T09:15:56;12.97;;;8.97;;
11957;SDS011;6039;52.576;13.348;2024-02-26T09:21:03;19.87;;;10.20;;
11957;SDS011;6039;52.576;13.348;2024-02-26T09:26:08;15.10;;;10.10;;
11957;SDS011;6039;52.576;13.348;2024-02-26T09:31:14;16.73;;;9.93;;
11957;SDS011;6039;52.576;13.348;2024-02-26T09:36:20;15.80;;;9.50;;
11957;SDS011;6039;52.576;13.348;2024-02-26T09:41:24;14.07;;;9.37;;
11957;SDS011;6039;52.576;13.348;2024-02-26T09:46:34;14.33;;;9.53;;
11957;SDS011;6039;52.576;13.348;2024-02-26T09:51:38;19.43;;;11.73;;
11957;SDS011;6039;52.576;13.348;2024-02-26T09:56:45;15.53;;;10.10;;
11957;SDS011;6039;52.576;13.348;2024-02-26T10:01:54;15.27;;;9.93;;
11957;SDS011;6039;52.576;13.348;2024-02-26T10:06:58;14.37;;;8.90;;
11957;SDS011;6039;52.576;13.348;2024-02-26T10:12:03;12.40;;;8.93;;
11957;SDS011;6039;52.576;13.348;2024-02-26T10:17:13;14.90;;;9.70;;
11957;SDS011;6039;52.576;13.348;2024-02-26T10:22:17;14.13;;;9.37;;
11957;SDS011;6039;52.576;13.348;2024-02-26T10:27:21;12.23;;;8.70;;
11957;SDS011;6039;52.576;13.348;2024-02-26T10:32:28;14.87;;;8.70;;
11957;SDS011;6039;52.576;13.348;2024-02-26T10:37:31;12.90;;;8.47;;
11957;SDS011;6039;52.576;13.348;2024-02-26T10:42:37;13.33;;;8.13;;
11957;SDS011;6039;52.576;13.348;2024-02-26T10:47:43;10.60;;;7.70;;
11957;SDS011;6039;52.576;13.348;2024-02-26T10:52:48;13.67;;;8.43;;
11957;SDS011;6039;52.576;13.348;2024-02-26T10:57:52;13.53;;;8.37;;
11957;SDS011;6039;52.576;13.348;2024-02-26T11:02:59;10.17;;;7.47;;
11957;SDS011;6039;52.576;13.348;2024-02-26T11:08:06;10.77;;;7.27;;
11957;SDS011;6039;52.576;13.348;2024-02-26T11:13:10;9.47;;;7.00;;
11957;SDS011;6039;52.576;13.348;2024-02-26T11:18:19;10.47;;;6.80;;
11957;SDS011;6039;52.576;13.348;2024-02-26T11:23:23;9.47;;;6.57;;
11957;SDS011;6039;52.576;13.348;2024-02-26T11:28:27;11.13;;;6.93;;
11957;SDS011;6039;52.576;13.348;2024-02-26T11:33:34;9.97;;;6.97;;
11957;SDS011;6039;52.576;13.348;2024-02-26T11:38:39;12.23;;;8.20;;
11957;SDS011;6039;52.576;13.348;2024-02-26T11:43:49;10.03;;;7.07;;
11957;SDS011;6039;52.576;13.348;2024-02-26T11:48:57;12.13;;;7.80;;
11957;SDS011;6039;52.576;13.348;2024-02-26T11:54:02;10.53;;;7.07;;
11957;SDS011;6039;52.576;13.348;2024-02-26T11:59:09;12.10;;;7.40;;
11957;SDS011;6039;52.576;13.348;2024-02-26T12:04:17;12.00;;;7.73;;
11957;SDS011;6039;52.576;13.348;2024-02-26T12:09:31;14.33;;;8.53;;
11957;SDS011;6039;52.576;13.348;2024-02-26T12:14:40;12.30;;;7.93;;
11957;SDS011;6039;52.576;13.348;2024-02-26T12:19:55;10.97;;;7.63;;
11957;SDS011;6039;52.576;13.348;2024-02-26T12:25:12;12.17;;;7.47;;
11957;SDS011;6039;52.576;13.348;2024-02-26T12:30:16;11.67;;;6.80;;
11957;SDS011;6039;52.576;13.348;2024-02-26T12:35:23;9.77;;;6.10;;
11957;SDS011;6039;52.576;13.348;2024-02-26T12:40:27;8.10;;;4.23;;
11957;SDS011;6039;52.576;13.348;2024-02-26T12:45:31;7.60;;;5.07;;
11957;SDS011;6039;52.576;13.348;2024-02-26T12:50:37;5.37;;;4.03;;
11957;SDS011;6039;52.576;13.348;2024-02-26T12:55:41;6.17;;;4.07;;
11957;SDS011;6039;52.576;13.348;2024-02-26T13:00:45;9.73;;;4.53;;
11957;SDS011;6039;52.576;13.348;2024-02-26T13:05:52;4.83;;;3.43;;
11957;SDS011;6039;52.576;13.348;2024-02-26T13:10:56;3.83;;;3.00;;
11957;SDS011;6039;52.576;13.348;2024-02-26T13:16:03;5.17;;;3.23;;
11957;SDS011;6039;52.576;13.348;2024-02-26T13:21:12;3.93;;;2.50;;
11957;SDS011;6039;52.576;13.348;2024-02-26T13:26:16;3.93;;;2.50;;
11957;SDS011;6039;52.576;13.348;2024-02-26T13:31:20;5.63;;;2.60;;
11957;SDS011;6039;52.576;13.348;2024-02-26T13:36:27;3.07;;;2.30;;
11957;SDS011;6039;52.576;13.348;2024-02-26T13:41:31;3.30;;;2.20;;
11957;SDS011;6039;52.576;13.348;2024-02-26T13:46:35;5.30;;;2.20;;
11957;SDS011;6039;52.576;13.348;2024-02-26T13:51:41;4.53;;;2.70;;
11957;SDS011;6039;52.576;13.348;2024-02-26T13:56:45;3.50;;;2.70;;
11957;SDS011;6039;52.576;13.348;2024-02-26T14:01:49;4.70;;;2.77;;
11957;SDS011;6039;52.576;13.348;2024-02-26T14:06:57;4.70;;;2.90;;
11957;SDS011;6039;52.576;13.348;2024-02-26T14:12:01;5.47;;;3.27;;
11957;SDS011;6039;52.576;13.348;2024-02-26T14:17:06;5.20;;;3.13;;
11957;SDS011;6039;52.576;13.348;2024-02-26T14:22:13;4.30;;;3.13;;
11957;SDS011;6039;52.576;13.348;2024-02-26T14:27:17;4.60;;;3.23;;
11957;SDS011;6039;52.576;13.348;2024-02-26T14:32:22;6.63;;;3.60;;
11957;SDS011;6039;52.576;13.348;2024-02-26T14:37:28;9.30;;;3.20;;
11957;SDS011;6039;52.576;13.348;2024-02-26T14:42:32;6.47;;;3.70;;
11957;SDS011;6039;52.576;13.348;2024-02-26T14:47:36;6.17;;;3.77;;
11957;SDS011;6039;52.576;13.348;2024-02-26T14:52:43;7.47;;;4.00;;
11957;SDS011;6039;52.576;13.348;2024-02-26T14:57:48;6.17;;;3.50;;
11957;SDS011;6039;52.576;13.348;2024-02-26T15:02:51;5.57;;;3.77;;
11957;SDS011;6039;52.576;13.348;2024-02-26T15:07:59;7.33;;;4.63;;
11957;SDS011;6039;52.576;13.348;2024-02-26T15:13:03;5.93;;;4.03;;
11957;SDS011;6039;52.576;13.348;2024-02-26T15:18:07;10.57;;;7.57;;
11957;SDS011;6039;52.576;13.348;2024-02-26T15:23:18;9.90;;;4.83;;
11957;SDS011;6039;52.576;13.348;2024-02-26T15:28:22;8.67;;;4.43;;
11957;SDS011;6039;52.576;13.348;2024-02-26T15:33:27;9.20;;;5.57;;
11957;SDS011;6039;52.576;13.348;2024-02-26T15:38:34;9.10;;;5.57;;
11957;SDS011;6039;52.576;13.348;2024-02-26T15:43:38;9.67;;;5.87;;
11957;SDS011;6039;52.576;13.348;2024-02-26T15:48:42;9.43;;;6.20;;
11957;SDS011;6039;52.576;13.348;2024-02-26T15:53:49;9.03;;;5.67;;
11957;SDS011;6039;52.576;13.348;2024-02-26T15:58:53;12.07;;;6.80;;
11957;SDS011;6039;52.576;13.348;2024-02-26T16:03:57;13.43;;;6.53;;
11957;SDS011;6039;52.576;13.348;2024-02-26T16:09:04;8.20;;;5.30;;
11957;SDS011;6039;52.576;13.348;2024-02-26T16:14:09;8.83;;;5.80;;
11957;SDS011;6039;52.576;13.348;2024-02-26T16:19:16;10.53;;;6.87;;
11957;SDS011;6039;52.576;13.348;2024-02-26T16:24:23;11.87;;;7.33;;
11957;SDS011;6039;52.576;13.348;2024-02-26T16:29:27;10.80;;;7.00;;
11957;SDS011;6039;52.576;13.348;2024-02-26T16:34:31;10.57;;;7.20;;
11957;SDS011;6039;52.576;13.348;2024-02-26T16:39:38;15.17;;;8.43;;
11957;SDS011;6039;52.576;13.348;2024-02-26T16:44:42;19.10;;;12.20;;
11957;SDS011;6039;52.576;13.348;2024-02-26T16:49:46;18.40;;;9.77;;
11957;SDS011;6039;52.576;13.348;2024-02-26T16:54:53;13.87;;;8.57;;
11957;SDS011;6039;52.576;13.348;2024-02-26T16:59:57;17.27;;;9.57;;
11957;SDS011;6039;52.576;13.348;2024-02-26T17:05:01;18.13;;;10.00;;
11957;SDS011;6039;52.576;13.348;2024-02-26T17:10:10;24.37;;;11.27;;
11957;SDS011;6039;52.576;13.348;2024-02-26T17:15:14;23.37;;;11.90;;
11957;SDS011;6039;52.576;13.348;2024-02-26T17:20:18;23.70;;;11.63;;
11957;SDS011;6039;52.576;13.348;2024-02-26T17:25:25;24.00;;;11.10;;
11957;SDS011;6039;52.576;13.348;2024-02-26T17:30:29;20.97;;;10.50;;
11957;SDS011;6039;52.576;13.348;2024-02-26T17:35:33;22.17;;;10.90;;
11957;SDS011;6039;52.576;13.348;2024-02-26T17:40:40;16.67;;;8.47;;
11957;SDS011;6039;52.576;13.348;2024-02-26T17:45:44;15.63;;;8.73;;
11957;SDS011;6039;52.576;13.348;2024-02-26T17:50:48;18.73;;;8.73;;
11957;SDS011;6039;52.576;13.348;2024-02-26T17:55:56;13.37;;;8.07;;
11957;SDS011;6039;52.576;13.348;2024-02-26T18:01:02;14.33;;;8.23;;
11957;SDS011;6039;52.576;13.348;2024-02-26T18:06:06;15.67;;;7.80;;
11957;SDS011;6039;52.576;13.348;2024-02-26T18:11:12;13.50;;;7.83;;
11957;SDS011;6039;52.576;13.348;2024-02-26T18:16:16;11.27;;;7.30;;
11957;SDS011;6039;52.576;13.348;2024-02-26T18:21:20;14.27;;;8.03;;
11957;SDS011;6039;52.576;13.348;2024-02-26T18:26:28;15.60;;;8.83;;
11957;SDS011;6039;52.576;13.348;2024-02-26T18:31:34;12.13;;;7.13;;
11957;SDS011;6039;52.576;13.348;2024-02-26T18:36:41;11.57;;;6.60;;
11957;SDS011;6039;52.576;13.348;2024-02-26T18:41:50;12.27;;;7.80;;
11957;SDS011;6039;52.576;13.348;2024-02-26T18:46:55;10.10;;;6.70;;
11957;SDS011;6039;52.576;13.348;2024-02-26T18:51:59;9.53;;;6.10;;
11957;SDS011;6039;52.576;13.348;2024-02-26T18:57:06;9.63;;;6.27;;
11957;SDS011;6039;52.576;13.348;2024-02-26T19:02:10;9.43;;;6.60;;
11957;SDS011;6039;52.576;13.348;2024-02-26T19:07:14;10.70;;;6.50;;
11957;SDS011;6039;52.576;13.348;2024-02-26T19:12:20;10.47;;;6.03;;
11957;SDS011;6039;52.576;13.348;2024-02-26T19:17:24;8.23;;;5.57;;
11957;SDS011;6039;52.576;13.348;2024-02-26T19:22:28;9.17;;;5.73;;
11957;SDS011;6039;52.576;13.348;2024-02-26T19:27:35;9.27;;;5.63;;
11957;SDS011;6039;52.576;13.348;2024-02-26T19:32:39;8.50;;;5.30;;
11957;SDS011;6039;52.576;13.348;2024-02-26T19:37:43;7.23;;;5.03;;
11957;SDS011;6039;52.576;13.348;2024-02-26T19:42:49;9.93;;;5.13;;
11957;SDS011;6039;52.576;13.348;2024-02-26T19:47:53;6.13;;;4.53;;
11957;SDS011;6039;52.576;13.348;2024-02-26T19:52:58;7.10;;;4.57;;
11957;SDS011;6039;52.576;13.348;2024-02-26T19:58:05;7.77;;;4.60;;
11957;SDS011;6039;52.576;13.348;2024-02-26T20:03:09;7.77;;;4.37;;
11957;SDS011;6039;52.576;13.348;2024-02-26T20:08:13;7.00;;;4.60;;
11957;SDS011;6039;52.576;13.348;2024-02-26T20:13:20;8.63;;;4.67;;
11957;SDS011;6039;52.576;13.348;2024-02-26T20:18:28;6.63;;;4.30;;
11957;SDS011;6039;52.576;13.348;2024-02-26T20:23:32;6.17;;;4.37;;
11957;SDS011;6039;52.576;13.348;2024-02-26T20:28:39;5.30;;;3.80;;
11957;SDS011;6039;52.576;13.348;2024-02-26T20:33:43;7.90;;;4.80;;
11957;SDS011;6039;52.576;13.348;2024-02-26T20:38:48;6.33;;;3.70;;
11957;SDS011;6039;52.576;13.348;2024-02-26T20:43:56;8.03;;;4.67;;
11957;SDS011;6039;52.576;13.348;2024-02-26T20:49:01;6.60;;;3.77;;
11957;SDS011;6039;52.576;13.348;2024-02-26T20:54:05;6.53;;;3.73;;
11957;SDS011;6039;52.576;13.348;2024-02-26T20:59:13;6.10;;;3.83;;
11957;SDS011;6039;52.576;13.348;2024-02-26T21:04:17;6.57;;;4.00;;
11957;SDS011;6039;52.576;13.348;2024-02-26T21:09:21;7.47;;;3.97;;
11957;SDS011;6039;52.576;13.348;2024-02-26T21:14:29;5.17;;;3.67;;
11957;SDS011;6039;52.576;13.348;2024-02-26T21:19:33;6.77;;;4.10;;
11957;SDS011;6039;52.576;13.348;2024-02-26T21:24:36;6.47;;;4.33;;
11957;SDS011;6039;52.576;13.348;2024-02-26T21:29:43;6.60;;;4.03;;
11957;SDS011;6039;52.576;13.348;2024-02-26T21:34:47;5.83;;;4.53;;
11957;SDS011;6039;52.576;13.348;2024-02-26T21:39:51;7.00;;;4.30;;
11957;SDS011;6039;52.576;13.348;2024-02-26T21:44:57;7.80;;;4.37;;
11957;SDS011;6039;52.576;13.348;2024-02-26T21:50:01;8.40;;;4.63;;
11957;SDS011;6039;52.576;13.348;2024-02-26T21:55:07;7.63;;;4.60;;
11957;SDS011;6039;52.576;13.348;2024-02-26T22:00:14;7.07;;;4.70;;
11957;SDS011;6039;52.576;13.348;2024-02-26T22:05:19;6.77;;;4.50;;
11957;SDS011;6039;52.576;13.348;2024-02-26T22:10:23;7.00;;;4.47;;
11957;SDS011;6039;52.576;13.348;2024-02-26T22:15:29;6.07;;;4.27;;
11957;SDS011;6039;52.576;13.348;2024-02-26T22:20:33;6.53;;;4.17;;
11957;SDS011;6039;52.576;13.348;2024-02-26T22:25:37;5.83;;;4.27;;
11957;SDS011;6039;52.576;13.348;2024-02-26T22:30:44;8.07;;;4.53;;
11957;SDS011;6039;52.576;13.348;2024-02-26T22:35:47;8.60;;;4.67;;
11957;SDS011;6039;52.576;13.348;2024-02-26T22:40:51;7.13;;;4.00;;
11957;SDS011;6039;52.576;13.348;2024-02-26T22:45:58;5.43;;;3.83;;
11957;SDS011;6039;52.576;13.348;2024-02-26T22:51:02;4.20;;;3.47;;
11957;SDS011;6039;52.576;13.348;2024-02-26T22:56:06;6.37;;;3.50;;
11957;SDS011;6039;52.576;13.348;2024-02-26T23:01:13;5.23;;;3.50;;
11957;SDS011;6039;52.576;13.348;2024-02-26T23:06:17;5.00;;;3.70;;
11957;SDS011;6039;52.576;13.348;2024-02-26T23:11:21;4.57;;;3.67;;
11957;SDS011;6039;52.576;13.348;2024-02-26T23:16:27;4.90;;;3.47;;
11957;SDS011;6039;52.576;13.348;2024-02-26T23:21:31;4.53;;;3.37;;
11957;SDS011;6039;52.576;13.348;2024-02-26T23:26:35;5.03;;;3.40;;
11957;SDS011;6039;52.576;13.348;2024-02-26T23:31:42;5.43;;;3.80;;
11957;SDS011;6039;52.576;13.348;2024-02-26T23:36:45;8.50;;;3.90;;
11957;SDS011;6039;52.576;13.348;2024-02-26T23:41:49;5.77;;;3.80;;
11957;SDS011;6039;52.576;13.348;2024-02-26T23:46:56;7.50;;;3.67;;
11957;SDS011;6039;52.576;13.348;2024-02-26T23:52:00;6.33;;;3.97;;
11957;SDS011;6039;52.576;13.348;2024-02-26T23:57:05;4.93;;;3.47;;
